Time;durP1;ratioP1;P1;durP2;ratioP2;P2;SDS_P1;SDS_P2;PMS_P1;PMS_P2;Temp;Humidity;BMP_temperature;BMP_pressure;BME280_temperature;BME280_humidity;BME280_pressure;Samples;Min_cycle;Max_cycle;Signal;HPM_P1;HPM_P2
2022/12/28 00:00:48;;;;;;;;;;;;;;;-144.99;100.00;52660.09;4948681;28;19999;-73
2022/12/28 00:03:15;;;;;;;;;;;;;;;-144.99;100.00;52609.13;4959455;29;19984;-73
2022/12/28 00:05:42;;;;;;;;;;;;;;;-144.99;100.00;52664.16;4960468;28;20016;-74
2022/12/28 00:08:08;;;;;;;;;;;;;;;-144.99;100.00;52668.22;4957230;28;19975;-73
2022/12/28 00:10:35;;;;;;;;;;;;;;;-144.99;100.00;52653.97;4954813;28;20422;-73
2022/12/28 00:13:01;;;;;;;;;;;;;;;-144.99;100.00;52647.84;4957487;28;20517;-73
2022/12/28 00:15:28;;;;;;;;;;;;;;;-144.99;100.00;52676.38;4954527;29;19993;-73
2022/12/28 00:17:56;;;;;;;;;;;;;;;-144.99;100.00;52662.13;4956510;28;20003;-75
2022/12/28 00:20:24;;;;;;;;;;;;;;;-144.99;100.00;52676.38;4961057;29;20003;-73
2022/12/28 00:22:50;;;;;;;;;;;;;;;-144.99;100.00;52680.47;4954779;29;19968;-73
2022/12/28 00:25:17;;;;;;;;;;;;;;;-144.99;99.96;52641.72;4965253;28;20010;-73
2022/12/28 00:27:43;;;;;;;;;;;;;;;-144.99;99.79;52680.47;4968891;28;19983;-76
2022/12/28 00:30:10;;;;;;;;;;;;;;;-144.99;100.00;52680.47;4973729;28;19991;-75
2022/12/28 00:32:37;;;;;;;;;;;;;;;-144.99;99.22;52688.63;4986504;28;20030;-83
2022/12/28 00:35:04;;;;;;;;;;;;;;;-144.99;98.73;52651.94;4984859;28;20042;-82
2022/12/28 00:37:32;;;;;;;;;;;;;;;-144.99;98.38;52676.38;4980570;28;20004;-83
2022/12/28 00:39:59;;;;;;;;;;;;;;;-144.99;97.90;52641.72;4982120;28;19950;-84
2022/12/28 00:42:25;;;;;;;;;;;;;;;-144.99;97.82;52676.38;4978402;28;19948;-80
2022/12/28 00:44:51;;;;;;;;;;;;;;;-144.99;97.88;52686.59;4969283;29;19945;-82
2022/12/28 00:47:18;;;;;;;;;;;;;;;-144.99;97.39;52668.22;4971430;29;19961;-82
2022/12/28 00:49:44;;;;;;;;;;;;;;;-144.99;96.89;52684.53;4971045;29;20287;-81
2022/12/28 00:52:11;;;;;;;;;;;;;;;-144.99;96.52;52647.84;4969700;29;19943;-76
2022/12/28 00:54:39;;;;;;;;;;;;;;;-144.99;96.24;52680.47;4971847;29;19925;-79
2022/12/28 00:57:05;;;;;;;;;;;;;;;-144.99;96.15;52656.00;4966549;28;19988;-81
2022/12/28 00:59:32;;;;;;;;;;;;;;;-144.99;96.02;52656.00;4962766;29;20457;-77
2022/12/28 01:01:58;;;;;;;;;;;;;;;-144.99;95.44;52623.38;4966438;29;19944;-76
2022/12/28 01:04:25;;;;;;;;;;;;;;;-144.99;95.72;52664.16;4974641;28;19954;-80
2022/12/28 01:06:51;;;;;;;;;;;;;;;-144.99;95.33;52651.94;5001355;23;20000;-76
2022/12/28 01:09:18;;;;;;;;;;;;;;;-144.99;95.02;52688.63;4976093;28;20061;-75
2022/12/28 01:11:45;;;;;;;;;;;;;;;-144.99;94.68;52647.84;5014132;28;19931;-75
2022/12/28 01:14:12;;;;;;;;;;;;;;;-144.99;94.51;52647.84;5002076;28;19968;-76
2022/12/28 01:16:38;;;;;;;;;;;;;;;-144.99;93.99;52651.94;4989532;28;19941;-76
2022/12/28 01:19:06;;;;;;;;;;;;;;;-144.99;93.87;52649.88;4961634;28;19977;-75
2022/12/28 01:21:33;;;;;;;;;;;;;;;-144.99;93.02;52696.78;4965520;28;19946;-77
2022/12/28 01:24:01;;;;;;;;;;;;;;;-144.99;92.60;52680.47;4958934;28;20295;-75
2022/12/28 01:26:28;;;;;;;;;;;;;;;-144.99;92.03;52647.84;4970698;28;20568;-74
2022/12/28 01:28:56;;;;;;;;;;;;;;;-144.99;92.08;52641.72;4971284;28;20504;-74
2022/12/28 01:31:23;;;;;;;;;;;;;;;-144.99;91.31;52635.63;4972220;28;19949;-76
2022/12/28 01:33:49;;;;;;;;;;;;;;;-144.99;91.56;52631.53;4972452;28;19967;-78
2022/12/28 01:36:17;;;;;;;;;;;;;;;-144.99;91.47;52672.31;4972978;28;19965;-79
2022/12/28 01:38:44;;;;;;;;;;;;;;;-144.99;91.82;52651.94;4972060;28;20015;-79
2022/12/28 01:41:12;;;;;;;;;;;;;;;-144.99;92.07;52645.81;4973368;28;20320;-79
2022/12/28 01:43:40;;;;;;;;;;;;;;;-144.99;91.93;52656.00;4972548;28;20001;-77
2022/12/28 01:46:08;;;;;;;;;;;;;;;-144.99;91.88;52639.69;4972785;28;19962;-78
2022/12/28 01:48:36;;;;;;;;;;;;;;;-144.99;91.90;52639.69;4987486;28;19950;-84
2022/12/28 01:51:03;;;;;;;;;;;;;;;-144.99;92.38;52664.16;4981926;28;19949;-79
2022/12/28 01:53:30;;;;;;;;;;;;;;;-144.99;93.65;52668.22;4972116;28;20008;-76
2022/12/28 01:55:57;;;;;;;;;;;;;;;-144.99;94.62;52688.63;4970279;28;20514;-77
2022/12/28 01:58:25;;;;;;;;;;;;;;;-144.99;96.15;52656.00;4961641;28;20110;-77
2022/12/28 02:00:52;;;;;;;;;;;;;;;-144.99;96.87;52653.97;4958581;28;20300;-77
2022/12/28 02:03:21;;;;;;;;;;;;;;;-144.99;97.22;52645.81;4971682;28;20176;-76
2022/12/28 02:05:49;;;;;;;;;;;;;;;-144.99;98.57;52676.38;4978820;28;19934;-77
2022/12/28 02:08:19;;;;;;;;;;;;;;;-144.99;98.65;52643.78;4973324;28;20064;-76
2022/12/28 02:10:46;;;;;;;;;;;;;;;-144.99;99.15;52676.38;4975608;28;19952;-79
2022/12/28 02:13:14;;;;;;;;;;;;;;;-144.99;100.00;52643.78;4974279;28;20414;-80
2022/12/28 02:15:40;;;;;;;;;;;;;;;-144.99;100.00;52647.84;4970039;28;19965;-79
2022/12/28 02:18:07;;;;;;;;;;;;;;;-144.99;100.00;52662.13;4965412;28;20371;-75
2022/12/28 02:20:40;;;;;;;;;;;;;;;-144.99;100.00;52684.53;4974235;28;19976;-75
2022/12/28 02:23:34;;;;;;;;;;;;;;;-144.99;100.00;52668.22;4971352;28;20427;-75
2022/12/28 02:26:32;;;;;;;;;;;;;;;-144.99;100.00;52676.38;4983271;28;19971;-78
2022/12/28 02:29:13;;;;;;;;;;;;;;;-144.99;100.00;52672.31;4969647;28;19970;-75
2022/12/28 02:31:43;;;;;;;;;;;;;;;-144.99;100.00;52647.84;4967214;28;20080;-76
2022/12/28 02:34:15;;;;;;;;;;;;;;;-144.99;100.00;52684.53;4970363;28;20344;-75
2022/12/28 02:36:45;;;;;;;;;;;;;;;-144.99;100.00;52676.38;4969033;28;19975;-74
2022/12/28 02:39:15;;;;;;;;;;;;;;;-144.99;100.00;52647.84;4968698;28;20050;-76
2022/12/28 02:41:43;;;;;;;;;;;;;;;-144.99;100.00;52692.69;4970131;28;20124;-76
2022/12/28 02:44:09;;;;;;;;;;;;;;;-144.99;100.00;52668.22;4971561;28;19979;-73
2022/12/28 02:52:21;;;;;;;;;;;;;;;-144.99;100.00;52651.94;4929337;29;19955;-77
2022/12/28 02:58:01;;;;;;;;;;;;;;;-144.99;100.00;52660.09;4962086;28;20008;-75
2022/12/28 03:00:32;;;;;;;;;;;;;;;-144.99;100.00;52656.00;4969060;28;20004;-76
2022/12/28 03:03:01;;;;;;;;;;;;;;;-144.99;100.00;52717.16;4979640;28;19954;-80
2022/12/28 03:08:19;;;;;;;;;;;;;;;-144.99;100.00;52688.63;4964258;28;19971;-74
2022/12/28 03:10:50;;;;;;;;;;;;;;;-144.99;100.00;52647.84;4969145;28;19957;-73
2022/12/28 03:16:06;;;;;;;;;;;;;;;-144.99;100.00;52713.09;4966409;28;19957;-75
2022/12/28 03:32:22;;;;;;;;;;;;;;;-144.99;100.00;52682.50;4971037;28;19990;-80
2022/12/28 03:34:49;;;;;;;;;;;;;;;-144.99;100.00;52694.72;4954790;28;20020;-78
2022/12/28 03:37:24;;;;;;;;;;;;;;;-144.99;100.00;52635.63;4969780;28;19964;-80
2022/12/28 03:39:52;;;;;;;;;;;;;;;-144.99;100.00;52680.47;4972814;28;19928;-82
2022/12/28 03:45:13;;;;;;;;;;;;;;;-144.99;100.00;52623.38;4959635;28;19953;-79
2022/12/28 03:47:41;;;;;;;;;;;;;;;-144.99;100.00;52647.84;4972139;28;20001;-76
2022/12/28 03:50:08;;;;;;;;;;;;;;;-144.99;100.00;52635.63;4965582;28;19994;-81
2022/12/28 03:52:37;;;;;;;;;;;;;;;-144.99;100.00;52676.38;4976981;28;19954;-77
2022/12/28 03:55:03;;;;;;;;;;;;;;;-144.99;100.00;52656.00;4973406;28;20466;-79
2022/12/28 03:57:30;;;;;;;;;;;;;;;-144.99;100.00;52704.94;4972748;28;19956;-80
2022/12/28 03:59:57;;;;;;;;;;;;;;;-144.99;100.00;52664.16;4959997;28;19994;-78
2022/12/28 04:02:23;;;;;;;;;;;;;;;-144.99;100.00;52645.81;4970385;28;20323;-79
2022/12/28 04:04:50;;;;;;;;;;;;;;;-144.99;100.00;52658.03;4982570;28;19980;-82
2022/12/28 04:07:17;;;;;;;;;;;;;;;-144.99;100.00;52700.84;4982248;28;20451;-76
2022/12/28 04:09:45;;;;;;;;;;;;;;;-144.99;100.00;52717.16;4965798;28;19954;-80
2022/12/28 04:12:13;;;;;;;;;;;;;;;-144.99;100.00;52653.97;4973611;28;20113;-81
2022/12/28 04:14:39;;;;;;;;;;;;;;;-144.99;100.00;52627.47;4976868;28;19967;-79
2022/12/28 04:17:06;;;;;;;;;;;;;;;-144.99;100.00;52696.78;4975603;28;20375;-80
2022/12/28 04:19:32;;;;;;;;;;;;;;;-144.99;100.00;52678.44;4996398;28;19936;-81
2022/12/28 04:21:59;;;;;;;;;;;;;;;-144.99;100.00;52627.47;4982693;28;19978;-79
2022/12/28 04:24:25;;;;;;;;;;;;;;;-144.99;100.00;52651.94;4974777;28;19956;-78
2022/12/28 04:26:53;;;;;;;;;;;;;;;-144.99;100.00;52688.63;4980833;28;19952;-78
2022/12/28 04:29:20;;;;;;;;;;;;;;;-144.99;100.00;52670.28;4990346;28;19950;-77
2022/12/28 04:31:46;;;;;;;;;;;;;;;-144.99;100.00;52633.59;4991768;28;19965;-78
2022/12/28 04:34:13;;;;;;;;;;;;;;;-144.99;100.00;52668.22;4992382;28;19949;-77
2022/12/28 04:36:40;;;;;;;;;;;;;;;-144.99;100.00;52631.53;4986497;28;19949;-78
2022/12/28 04:39:07;;;;;;;;;;;;;;;-144.99;100.00;52676.38;4984089;28;20062;-79
2022/12/28 04:41:33;;;;;;;;;;;;;;;-144.99;100.00;52627.47;4973508;28;19950;-75
2022/12/28 04:44:01;;;;;;;;;;;;;;;-144.99;100.00;52643.78;4976616;28;20006;-76
2022/12/28 04:46:28;;;;;;;;;;;;;;;-144.99;100.00;52658.03;4976141;28;19953;-76
2022/12/28 04:48:54;;;;;;;;;;;;;;;-144.99;100.00;52656.00;4966541;28;20296;-75
2022/12/28 04:51:22;;;;;;;;;;;;;;;-144.99;100.00;52647.84;4970819;28;20411;-74
2022/12/28 04:53:48;;;;;;;;;;;;;;;-144.99;100.00;52664.16;4971559;28;19948;-77
2022/12/28 04:56:16;;;;;;;;;;;;;;;-144.99;100.00;52615.25;4985857;28;20024;-80
2022/12/28 04:58:43;;;;;;;;;;;;;;;-144.99;100.00;52627.47;4969526;28;19964;-77
2022/12/28 05:01:12;;;;;;;;;;;;;;;-144.99;100.00;52647.84;4964640;28;20008;-77
2022/12/28 05:03:39;;;;;;;;;;;;;;;-144.99;100.00;52631.53;4969984;28;19958;-77
2022/12/28 05:06:07;;;;;;;;;;;;;;;-144.99;100.00;52668.22;4970023;28;20340;-77
2022/12/28 05:08:34;;;;;;;;;;;;;;;-144.99;100.00;52635.63;4971929;28;20445;-76
2022/12/28 05:11:01;;;;;;;;;;;;;;;-144.99;100.00;52627.47;4971555;28;19954;-74
2022/12/28 05:13:27;;;;;;;;;;;;;;;-144.99;100.00;52676.38;4971438;28;20192;-77
2022/12/28 05:15:53;;;;;;;;;;;;;;;-144.99;100.00;52641.72;4969320;28;20006;-75
2022/12/28 05:18:21;;;;;;;;;;;;;;;-144.99;100.00;52713.09;4971324;28;19978;-76
2022/12/28 05:20:48;;;;;;;;;;;;;;;-144.99;100.00;52688.63;4972067;28;20036;-76
2022/12/28 05:23:14;;;;;;;;;;;;;;;-144.99;100.00;52653.97;4970718;28;20004;-76
2022/12/28 05:25:41;;;;;;;;;;;;;;;-144.99;100.00;52635.63;4969949;28;20388;-79
2022/12/28 05:28:07;;;;;;;;;;;;;;;-144.99;100.00;52684.53;4974339;28;20007;-80
2022/12/28 05:30:34;;;;;;;;;;;;;;;-144.99;100.00;52651.94;4970308;28;19958;-74
2022/12/28 05:33:00;;;;;;;;;;;;;;;-144.99;100.00;52647.84;4982578;28;20159;-74
2022/12/28 05:35:28;;;;;;;;;;;;;;;-144.99;100.00;52672.31;4977937;28;20498;-75
2022/12/28 05:37:54;;;;;;;;;;;;;;;-144.99;100.00;52645.81;4969211;28;20000;-74
2022/12/28 05:40:21;;;;;;;;;;;;;;;-144.99;100.00;52641.72;4969597;28;19952;-74
2022/12/28 05:42:47;;;;;;;;;;;;;;;-144.99;100.00;52682.50;4969467;28;19997;-74
2022/12/28 05:45:14;;;;;;;;;;;;;;;-144.99;100.00;52639.69;4968598;28;20436;-74
2022/12/28 05:47:40;;;;;;;;;;;;;;;-144.99;100.00;52684.53;4968878;28;20053;-74
2022/12/28 05:50:07;;;;;;;;;;;;;;;-144.99;100.00;52635.63;4969568;28;20320;-73
2022/12/28 05:52:35;;;;;;;;;;;;;;;-144.99;100.00;52660.09;4969316;28;20048;-74
2022/12/28 05:55:02;;;;;;;;;;;;;;;-144.99;100.00;52656.00;4967017;28;19960;-75
2022/12/28 05:57:28;;;;;;;;;;;;;;;-144.99;100.00;52623.38;4963409;28;19966;-74
2022/12/28 05:59:55;;;;;;;;;;;;;;;-144.99;100.00;52651.94;4955850;28;20036;-76
2022/12/28 06:02:24;;;;;;;;;;;;;;;-144.99;100.00;52692.69;4964246;28;20000;-75
2022/12/28 06:04:50;;;;;;;;;;;;;;;-144.99;100.00;52653.97;4968930;28;19988;-73
2022/12/28 06:07:17;;;;;;;;;;;;;;;-144.99;100.00;52639.69;4961829;28;19972;-77
2022/12/28 06:09:45;;;;;;;;;;;;;;;-144.99;100.00;52651.94;4972315;28;20017;-74
2022/12/28 06:12:11;;;;;;;;;;;;;;;-144.99;100.00;52643.78;4993088;28;19942;-81
2022/12/28 06:14:38;;;;;;;;;;;;;;;-144.99;100.00;52631.53;4974276;28;19994;-79
2022/12/28 06:17:04;;;;;;;;;;;;;;;-144.99;100.00;52631.53;4968810;28;19985;-77
2022/12/28 06:19:31;;;;;;;;;;;;;;;-144.99;100.00;52643.78;4952797;28;19995;-77
2022/12/28 06:21:57;;;;;;;;;;;;;;;-144.99;100.00;52641.72;4967132;28;20425;-79
2022/12/28 06:24:24;;;;;;;;;;;;;;;-144.99;100.00;52658.03;4971360;28;20094;-80
2022/12/28 06:26:52;;;;;;;;;;;;;;;-144.99;100.00;52607.09;4970882;28;19990;-78
2022/12/28 06:29:18;;;;;;;;;;;;;;;-144.99;100.00;52633.59;4287255;28;10000807;-78
2022/12/28 06:31:46;;;;;;;;;;;;;;;-144.99;100.00;52635.63;4971262;28;20391;-79
2022/12/28 06:34:13;;;;;;;;;;;;;;;-144.99;100.00;52627.47;4969514;28;19953;-78
2022/12/28 06:36:40;;;;;;;;;;;;;;;-144.99;100.00;52615.25;4968023;28;19957;-79
2022/12/28 06:39:08;;;;;;;;;;;;;;;-144.99;100.00;52631.53;4963920;28;20013;-78
2022/12/28 06:41:35;;;;;;;;;;;;;;;-144.99;100.00;52662.13;4969761;28;19953;-77
2022/12/28 06:44:05;;;;;;;;;;;;;;;-144.99;100.00;52668.22;4968109;28;19995;-80
2022/12/28 06:46:32;;;;;;;;;;;;;;;-144.99;100.00;52651.94;4967432;28;19978;-79
2022/12/28 06:48:58;;;;;;;;;;;;;;;-144.99;100.00;52635.63;4988186;28;19987;-83
2022/12/28 06:51:26;;;;;;;;;;;;;;;-144.99;100.00;52643.78;4969907;28;19953;-78
2022/12/28 06:53:53;;;;;;;;;;;;;;;-144.99;100.00;52623.38;4966171;28;20406;-79
2022/12/28 06:56:21;;;;;;;;;;;;;;;-144.99;100.00;52639.69;4967274;28;20410;-83
2022/12/28 06:58:48;;;;;;;;;;;;;;;-144.99;100.00;52617.28;4963494;28;20025;-79
2022/12/28 07:01:17;;;;;;;;;;;;;;;-144.99;100.00;52639.69;4959263;28;19947;-78
2022/12/28 07:03:44;;;;;;;;;;;;;;;-144.99;100.00;52688.63;4967902;28;20041;-77
2022/12/28 07:06:11;;;;;;;;;;;;;;;-144.99;100.00;52643.78;4966170;28;19952;-75
2022/12/28 07:08:38;;;;;;;;;;;;;;;-144.99;100.00;52639.69;4995732;23;19994;-75
2022/12/28 07:11:06;;;;;;;;;;;;;;;-144.99;100.00;52645.81;4981170;28;20513;-77
2022/12/28 07:13:33;;;;;;;;;;;;;;;-144.99;100.00;52641.72;4978006;28;20547;-71
2022/12/28 07:16:01;;;;;;;;;;;;;;;-144.99;100.00;52647.84;4980513;28;20060;-76
2022/12/28 07:18:29;;;;;;;;;;;;;;;-144.99;100.00;52639.69;4977735;28;19973;-76
2022/12/28 07:20:58;;;;;;;;;;;;;;;-144.99;100.00;52580.59;4982544;28;19965;-76
2022/12/28 07:23:28;;;;;;;;;;;;;;;-144.99;100.00;52672.31;4966908;28;20039;-74
2022/12/28 07:25:55;;;;;;;;;;;;;;;-144.99;100.00;52721.22;4962359;28;19983;-74
2022/12/28 07:28:21;;;;;;;;;;;;;;;-144.99;100.00;52619.31;4975084;28;19996;-77
2022/12/28 07:30:48;;;;;;;;;;;;;;;-144.99;100.00;52643.78;5003466;28;19945;-78
2022/12/28 07:33:14;;;;;;;;;;;;;;;-144.99;100.00;52635.63;4970178;28;20054;-75
2022/12/28 07:35:42;;;;;;;;;;;;;;;-144.99;100.00;52635.63;4963208;28;20067;-75
2022/12/28 07:38:10;;;;;;;;;;;;;;;-144.99;100.00;52647.84;4963940;28;20252;-73
2022/12/28 07:40:37;;;;;;;;;;;;;;;-144.99;100.00;52668.22;4966358;28;20157;-75
2022/12/28 07:43:03;;;;;;;;;;;;;;;-144.99;100.00;52651.94;4965725;28;20483;-74
2022/12/28 07:45:29;;;;;;;;;;;;;;;-144.99;100.00;52615.25;4965078;28;19959;-77
2022/12/28 07:47:56;;;;;;;;;;;;;;;-144.99;100.00;52631.53;4960047;28;20050;-75
2022/12/28 07:50:22;;;;;;;;;;;;;;;-144.99;100.00;52627.47;4959060;28;20038;-76
2022/12/28 07:52:50;;;;;;;;;;;;;;;-144.99;100.00;52639.69;4965318;28;19978;-71
2022/12/28 07:55:17;;;;;;;;;;;;;;;-144.99;100.00;52590.78;4981249;28;19967;-76
2022/12/28 07:57:43;;;;;;;;;;;;;;;-144.99;100.00;52607.09;4971266;28;20404;-76
2022/12/28 08:00:10;;;;;;;;;;;;;;;-144.99;100.00;52660.09;4956204;28;20058;-75
2022/12/28 08:02:37;;;;;;;;;;;;;;;-144.99;100.00;52619.31;4963191;28;19956;-75
2022/12/28 08:05:03;;;;;;;;;;;;;;;-144.99;100.00;52615.25;4964142;28;19956;-77
2022/12/28 08:07:30;;;;;;;;;;;;;;;-144.99;100.00;52617.28;4964849;28;20004;-76
2022/12/28 08:09:57;;;;;;;;;;;;;;;-144.99;100.00;52660.09;4966430;28;19988;-72
2022/12/28 08:12:24;;;;;;;;;;;;;;;-144.99;100.00;52627.47;4974609;28;19993;-74
2022/12/28 08:14:51;;;;;;;;;;;;;;;-144.99;100.00;52605.03;4970301;28;20041;-72
2022/12/28 08:17:17;;;;;;;;;;;;;;;-144.99;100.00;52611.16;4966712;28;20003;-76
2022/12/28 08:19:43;;;;;;;;;;;;;;;-144.99;100.00;52607.09;4973878;28;20075;-76
2022/12/28 08:22:10;;;;;;;;;;;;;;;-144.99;100.00;52631.53;4965096;28;20034;-74
2022/12/28 08:24:36;;;;;;;;;;;;;;;-144.99;100.00;52619.31;4963989;28;20165;-76
2022/12/28 08:27:04;;;;;;;;;;;;;;;-144.99;100.00;52623.38;4963258;28;19963;-79
2022/12/28 08:29:31;;;;;;;;;;;;;;;-144.99;100.00;52639.69;4971498;28;19963;-80
2022/12/28 08:31:57;;;;;;;;;;;;;;;-144.99;100.00;52627.47;4968595;28;20037;-78
2022/12/28 08:34:25;;;;;;;;;;;;;;;-144.99;100.00;52603.00;4962419;28;20554;-81
2022/12/28 08:36:52;;;;;;;;;;;;;;;-144.99;100.00;52617.28;4963271;28;20347;-78
2022/12/28 08:39:18;;;;;;;;;;;;;;;-144.99;100.00;52619.31;4965437;28;20023;-76
2022/12/28 08:41:45;;;;;;;;;;;;;;;-144.99;100.00;52627.47;4965873;28;19986;-76
2022/12/28 08:44:13;;;;;;;;;;;;;;;-144.99;100.00;52590.78;4964607;28;19955;-78
2022/12/28 08:46:40;;;;;;;;;;;;;;;-144.99;100.00;52590.78;4959016;28;19950;-77
2022/12/28 08:49:06;;;;;;;;;;;;;;;-144.99;100.00;52598.94;4954700;28;19979;-77
2022/12/28 08:51:34;;;;;;;;;;;;;;;-144.99;100.00;52594.84;4965337;28;20055;-75
2022/12/28 08:54:01;;;;;;;;;;;;;;;-144.99;100.00;52631.53;4964411;28;20397;-75
2022/12/28 08:56:28;;;;;;;;;;;;;;;-144.99;100.00;52623.38;4958890;28;20084;-77
2022/12/28 08:58:55;;;;;;;;;;;;;;;-144.99;100.00;52582.63;4954982;28;20023;-77
2022/12/28 09:01:23;;;;;;;;;;;;;;;-144.99;100.00;52635.63;4952693;28;20618;-78
2022/12/28 09:03:51;;;;;;;;;;;;;;;-144.99;100.00;52570.38;4963591;28;20051;-78
2022/12/28 09:06:19;;;;;;;;;;;;;;;-144.99;100.00;52631.53;4961312;28;20037;-79
2022/12/28 09:08:48;;;;;;;;;;;;;;;-144.99;100.00;52582.63;4965687;28;20068;-76
2022/12/28 09:11:15;;;;;;;;;;;;;;;-144.99;100.00;52641.72;4967774;28;20040;-78
2022/12/28 09:13:41;;;;;;;;;;;;;;;-144.99;100.00;52627.47;4981544;28;20202;-75
2022/12/28 09:16:08;;;;;;;;;;;;;;;-144.99;100.00;52590.78;4962482;28;19961;-73
2022/12/28 09:18:37;;;;;;;;;;;;;;;-144.99;100.00;52594.84;4965943;28;20020;-79
2022/12/28 09:21:04;;;;;;;;;;;;;;;-144.99;100.00;52586.69;4966397;28;19994;-75
2022/12/28 09:23:31;;;;;;;;;;;;;;;-144.99;100.00;52627.47;4965544;28;20377;-78
2022/12/28 09:26:02;;;;;;;;;;;;;;;-144.99;100.00;52615.25;4964861;28;20276;-77
2022/12/28 09:28:29;;;;;;;;;;;;;;;-144.99;100.00;52611.16;4963704;28;20029;-79
2022/12/28 09:30:55;;;;;;;;;;;;;;;-144.99;100.00;52578.53;4971300;28;20908;-79
2022/12/28 09:36:07;;;;;;;;;;;;;;;-144.99;100.00;52588.75;4960294;28;19978;-78
2022/12/28 09:38:34;;;;;;;;;;;;;;;-144.99;100.00;52594.84;4986480;28;19956;-81
2022/12/28 09:41:00;;;;;;;;;;;;;;;-144.99;100.00;52623.38;4955676;28;20057;-75
2022/12/28 09:43:27;;;;;;;;;;;;;;;-144.99;100.00;52603.00;4964350;28;19962;-74
2022/12/28 09:45:54;;;;;;;;;;;;;;;-144.99;100.00;52598.94;4961139;28;20047;-76
2022/12/28 09:48:25;;;;;;;;;;;;;;;-144.99;100.00;52623.38;4951706;28;21409;-76
2022/12/28 09:50:52;;;;;;;;;;;;;;;-144.99;100.00;52603.00;4963768;28;20053;-74
2022/12/28 09:53:23;;;;;;;;;;;;;;;-144.99;100.00;52574.47;4959686;28;20036;-74
2022/12/28 09:55:53;;;;;;;;;;;;;;;-144.99;100.00;52598.94;4958104;28;20364;-77
2022/12/28 09:58:21;;;;;;;;;;;;;;;-144.99;100.00;52586.69;4961615;28;20445;-75
2022/12/28 10:00:49;;;;;;;;;;;;;;;-144.99;100.00;52609.13;4958054;28;20031;-78
2022/12/28 10:03:16;;;;;;;;;;;;;;;-144.99;100.00;52570.38;4963895;28;19985;-78
2022/12/28 10:05:43;;;;;;;;;;;;;;;-144.99;100.00;52594.84;4975896;28;20111;-77
2022/12/28 10:08:11;;;;;;;;;;;;;;;-144.99;100.00;52598.94;4971117;28;20262;-78
2022/12/28 10:10:39;;;;;;;;;;;;;;;-144.99;100.00;52562.25;4963764;28;19979;-77
2022/12/28 10:13:13;;;;;;;;;;;;;;;-144.99;100.00;52643.78;4990945;28;20066;-78
2022/12/28 10:15:40;;;;;;;;;;;;;;;-144.99;100.00;52635.63;4958131;28;19949;-76
2022/12/28 10:18:07;;;;;;;;;;;;;;;-144.99;100.00;52619.31;4967108;28;20449;-77
2022/12/28 10:20:34;;;;;;;;;;;;;;;-144.99;100.00;52615.25;4965031;28;19980;-76
2022/12/28 10:23:00;;;;;;;;;;;;;;;-144.99;100.00;52578.53;4963406;28;20468;-76
2022/12/28 10:25:26;;;;;;;;;;;;;;;-144.99;100.00;52631.53;4961794;28;20325;-76
2022/12/28 10:27:55;;;;;;;;;;;;;;;-144.99;100.00;52631.53;4961644;28;20551;-77
2022/12/28 10:30:25;;;;;;;;;;;;;;;-144.99;100.00;52574.47;4949016;28;20424;-77
2022/12/28 10:32:53;;;;;;;;;;;;;;;-144.99;100.00;52590.78;4963625;28;20041;-72
2022/12/28 10:35:26;;;;;;;;;;;;;;;-144.99;100.00;52582.63;4958868;28;20061;-77
2022/12/28 10:37:57;;;;;;;;;;;;;;;-144.99;100.00;52584.66;4962486;28;20396;-75
2022/12/28 10:40:26;;;;;;;;;;;;;;;-144.99;100.00;52603.00;4952658;28;19959;-76
2022/12/28 10:42:54;;;;;;;;;;;;;;;-144.99;100.00;52554.09;4962352;28;19960;-76
2022/12/28 10:45:23;;;;;;;;;;;;;;;-144.99;100.00;52570.38;4957891;28;19946;-75
2022/12/28 10:47:51;;;;;;;;;;;;;;;-144.99;100.00;52592.81;4966214;28;19947;-79
2022/12/28 10:50:32;;;;;;;;;;;;;;;-144.99;100.00;52554.09;4969036;28;20025;-78
2022/12/28 10:52:59;;;;;;;;;;;;;;;-144.99;100.00;52613.19;4948976;28;20214;-77
2022/12/28 10:55:26;;;;;;;;;;;;;;;-144.99;100.00;52615.25;4962546;28;19951;-79
2022/12/28 10:57:53;;;;;;;;;;;;;;;-144.99;100.00;52600.97;4961074;28;19970;-79
2022/12/28 11:00:20;;;;;;;;;;;;;;;-144.99;100.00;52607.09;4960215;28;20056;-78
2022/12/28 11:02:48;;;;;;;;;;;;;;;-144.99;100.00;52603.00;4962444;28;20043;-75
2022/12/28 11:05:18;;;;;;;;;;;;;;;-144.99;100.00;52574.47;4960402;28;20045;-76
2022/12/28 11:07:45;;;;;;;;;;;;;;;-144.99;100.00;52558.16;4963711;28;20505;-76
2022/12/28 11:10:31;;;;;;;;;;;;;;;-144.99;100.00;52550.00;4963763;28;20066;-76
2022/12/28 11:12:58;;;;;;;;;;;;;;;-144.99;100.00;52543.91;4976427;28;19950;-78
2022/12/28 11:15:26;;;;;;;;;;;;;;;-144.99;100.00;52578.53;4962429;28;20474;-77
2022/12/28 11:17:56;;;;;;;;;;;;;;;-144.99;100.00;52592.81;4963762;28;20030;-75
2022/12/28 11:20:24;;;;;;;;;;;;;;;-144.99;100.00;52586.69;4967758;28;20718;-75
2022/12/28 11:22:51;;;;;;;;;;;;;;;-144.99;100.00;52584.66;4964095;28;19950;-79
2022/12/28 11:25:19;;;;;;;;;;;;;;;-144.99;100.00;52550.00;4957920;28;20598;-76
2022/12/28 11:27:47;;;;;;;;;;;;;;;-144.99;100.00;52586.69;4966031;28;20037;-76
2022/12/28 11:30:14;;;;;;;;;;;;;;;-144.99;100.00;52525.56;4955822;28;20009;-76
2022/12/28 11:32:44;;;;;;;;;;;;;;;-144.99;100.00;52533.69;4964588;28;20052;-74
2022/12/28 11:35:16;;;;;;;;;;;;;;;-144.99;100.00;52607.09;4962398;28;20318;-77
2022/12/28 11:37:48;;;;;;;;;;;;;;;-144.99;100.00;52568.34;4964976;28;19962;-73
2022/12/28 11:40:45;;;;;;;;;;;;;;;-144.99;100.00;52570.38;4964285;28;20560;-75
2022/12/28 11:43:38;;;;;;;;;;;;;;;-144.99;100.00;52615.25;4962515;28;20564;-75
2022/12/28 11:46:05;;;;;;;;;;;;;;;-144.99;100.00;52554.09;4956119;28;20290;-76
2022/12/28 11:48:38;;;;;;;;;;;;;;;-144.99;100.00;52578.53;4952761;28;19962;-76
2022/12/28 11:51:14;;;;;;;;;;;;;;;-144.99;100.00;52566.31;4964219;28;20481;-77
2022/12/28 11:53:51;;;;;;;;;;;;;;;-144.99;100.00;52531.66;4956574;28;20459;-75
2022/12/28 11:56:18;;;;;;;;;;;;;;;-144.99;100.00;52570.38;4967936;28;19934;-77
2022/12/28 11:58:46;;;;;;;;;;;;;;;-144.99;100.00;52570.38;4979624;28;19973;-76
2022/12/28 12:01:35;;;;;;;;;;;;;;;-144.99;100.00;52590.78;4957011;28;19957;-77
2022/12/28 12:04:16;;;;;;;;;;;;;;;-144.99;100.00;52611.16;4959386;28;19989;-78
2022/12/28 12:07:01;;;;;;;;;;;;;;;-144.99;100.00;52570.38;4961638;28;19980;-74
2022/12/28 12:09:42;;;;;;;;;;;;;;;-144.99;100.00;52558.16;4950775;28;20037;-79
2022/12/28 12:12:23;;;;;;;;;;;;;;;-144.99;100.00;52545.94;4970744;28;20041;-77
2022/12/28 12:14:53;;;;;;;;;;;;;;;-144.99;100.00;52566.31;4970267;28;20043;-76
2022/12/28 12:17:21;;;;;;;;;;;;;;;-144.99;100.00;52590.78;4964207;28;20064;-76
2022/12/28 12:19:49;;;;;;;;;;;;;;;-144.99;100.00;52623.38;4960186;28;19978;-78
2022/12/28 12:22:18;;;;;;;;;;;;;;;-144.99;100.00;52550.00;4966941;28;19950;-79
2022/12/28 12:24:48;;;;;;;;;;;;;;;-144.99;100.00;52558.16;4961083;28;20034;-77
2022/12/28 12:27:17;;;;;;;;;;;;;;;-144.99;100.00;52586.69;4967109;28;20378;-78
2022/12/28 12:29:45;;;;;;;;;;;;;;;-144.99;100.00;52600.97;4958350;28;20092;-75
2022/12/28 12:32:15;;;;;;;;;;;;;;;-144.99;100.00;52554.09;4972275;28;19972;-80
2022/12/28 12:34:44;;;;;;;;;;;;;;;-144.99;100.00;52574.47;4969434;28;19953;-76
2022/12/28 12:37:27;;;;;;;;;;;;;;;-144.99;100.00;52603.00;4956656;28;20494;-76
2022/12/28 12:40:04;;;;;;;;;;;;;;;-144.99;100.00;52598.94;4966360;28;20003;-77
2022/12/28 12:42:36;;;;;;;;;;;;;;;-144.99;100.00;52623.38;4965674;28;20026;-76
2022/12/28 12:45:12;;;;;;;;;;;;;;;-144.99;100.00;52586.69;4963882;28;20414;-73
2022/12/28 12:47:56;;;;;;;;;;;;;;;-144.99;100.00;52603.00;4951696;28;20476;-75
2022/12/28 12:50:33;;;;;;;;;;;;;;;-144.99;100.00;52590.78;4967275;28;20409;-76
2022/12/28 12:53:05;;;;;;;;;;;;;;;-144.99;100.00;52582.63;4964299;28;20086;-74
2022/12/28 12:55:46;;;;;;;;;;;;;;;-144.99;100.00;52570.38;4959434;28;19950;-73
2022/12/28 12:58:19;;;;;;;;;;;;;;;-144.99;100.00;52574.47;4956866;28;19970;-80